Time;durP1;ratioP1;P1;durP2;ratioP2;P2;SDS_P1;SDS_P2;PMS_P1;PMS_P2;Temp;Humidity;BMP_temperature;BMP_pressure;BME280_temperature;BME280_humidity;BME280_pressure;Samples;Min_cycle;Max_cycle;Signal;HPM_P1;HPM_P2
2023/12/22 00:00:39;;;;;;;20.67;18.47;;;;;;;1.78;92.69;91271.56;5066503;28;20213;-73
2023/12/22 00:03:04;;;;;;;21.30;17.40;;;;;;;1.52;93.69;91261.28;5067520;28;20213;-73
2023/12/22 00:05:30;;;;;;;20.87;18.77;;;;;;;1.68;93.62;91262.06;5061309;28;20236;-73
2023/12/22 00:07:55;;;;;;;19.30;17.30;;;;;;;1.81;93.17;91247.88;5079211;28;20217;-72
2023/12/22 00:10:20;;;;;;;19.67;15.93;;;;;;;1.85;92.65;91226.56;5087743;28;20192;-72
2023/12/22 00:12:46;;;;;;;20.17;18.10;;;;;;;1.34;94.92;91220.66;5068719;28;20209;-71
2023/12/22 00:15:11;;;;;;;19.70;17.60;;;;;;;1.14;94.32;91205.22;5068313;28;20216;-73
2023/12/22 00:17:37;;;;;;;18.63;16.70;;;;;;;1.49;94.51;91233.50;5057918;28;20271;-73
2023/12/22 00:20:03;;;;;;;20.27;17.33;;;;;;;1.48;96.08;91244.81;5048566;28;20221;-73
2023/12/22 00:22:29;;;;;;;18.67;16.73;;;;;;;1.70;94.06;91218.84;5048448;28;20228;-72
2023/12/22 00:24:54;;;;;;;19.90;17.87;;;;;;;1.26;93.87;91190.31;5066964;28;20239;-73
2023/12/22 00:27:20;;;;;;;18.90;17.13;;;;;;;1.46;94.85;91239.16;5069142;28;20621;-72
2023/12/22 00:29:45;;;;;;;17.90;16.30;;;;;;;1.68;94.63;91244.06;5067307;28;20182;-71
2023/12/22 00:32:11;;;;;;;19.90;17.93;;;;;;;1.21;95.12;91218.59;5075656;28;20225;-72
2023/12/22 00:34:36;;;;;;;21.83;19.33;;;;;;;1.16;96.48;91236.59;5072568;28;20193;-72
2023/12/22 00:37:01;;;;;;;20.23;18.10;;;;;;;1.77;95.03;91218.56;5075296;28;20209;-73
2023/12/22 00:39:27;;;;;;;18.57;16.70;;;;;;;1.84;93.87;91219.09;5076370;28;20268;-72
2023/12/22 00:41:53;;;;;;;18.30;16.30;;;;;;;1.67;94.67;91178.97;5060787;28;20225;-73
2023/12/22 00:44:18;;;;;;;19.37;17.23;;;;;;;1.85;94.02;91171.75;5069513;28;20215;-71
2023/12/22 00:46:43;;;;;;;17.40;15.60;;;;;;;2.03;92.47;91153.16;5068951;28;20225;-72
2023/12/22 00:49:09;;;;;;;16.20;14.50;;;;;;;2.04;93.09;91142.59;5048600;28;20194;-72
2023/12/22 00:51:34;;;;;;;21.27;17.10;;;;;;;2.25;91.72;91153.59;5055709;28;20189;-72
2023/12/22 00:53:59;;;;;;;15.63;14.33;;;;;;;2.24;90.05;91147.66;5052987;28;20218;-72
2023/12/22 00:56:25;;;;;;;18.03;16.33;;;;;;;2.04;91.80;91178.63;5047639;28;20276;-72
2023/12/22 00:58:50;;;;;;;20.43;18.37;;;;;;;1.68;95.54;91182.34;5043330;28;20677;-71
2023/12/22 01:01:15;;;;;;;21.13;17.57;;;;;;;1.68;94.62;91195.94;5056344;28;20210;-72
2023/12/22 01:03:40;;;;;;;21.33;17.40;;;;;;;2.14;92.76;91204.34;5053831;28;20225;-72
2023/12/22 01:06:06;;;;;;;17.93;15.97;;;;;;;2.27;92.76;91195.31;5055691;28;20186;-72
2023/12/22 01:08:31;;;;;;;19.27;17.23;;;;;;;1.95;92.67;91205.94;5075709;28;20226;-72
2023/12/22 01:10:56;;;;;;;19.10;16.13;;;;;;;2.02;93.00;91213.38;5070990;28;20198;-72
2023/12/22 01:13:22;;;;;;;22.53;16.40;;;;;;;2.47;90.63;91224.31;5078450;28;20276;-72
2023/12/22 01:15:47;;;;;;;19.47;16.63;;;;;;;2.36;90.86;91186.00;5068792;28;20189;-73
2023/12/22 01:18:13;;;;;;;20.03;16.50;;;;;;;2.35;91.48;91197.34;5059980;28;20272;-72
2023/12/22 01:20:38;;;;;;;19.83;17.43;;;;;;;2.46;91.59;91227.16;5054153;28;20230;-72
2023/12/22 01:23:03;;;;;;;19.47;17.50;;;;;;;2.62;89.37;91190.78;5066220;28;20218;-73
2023/12/22 01:25:29;;;;;;;19.00;16.17;;;;;;;2.44;89.92;91193.97;5071607;28;20205;-72
2023/12/22 01:27:54;;;;;;;22.23;19.00;;;;;;;2.67;89.38;91195.13;5061952;28;20237;-72
2023/12/22 01:30:19;;;;;;;22.90;19.17;;;;;;;2.59;89.15;91180.22;5055835;28;20186;-72
2023/12/22 01:32:45;;;;;;;21.47;18.17;;;;;;;2.28;92.17;91189.09;5066920;28;20236;-72
2023/12/22 01:35:10;;;;;;;21.43;19.23;;;;;;;2.66;90.04;91185.88;5075469;28;20220;-73
2023/12/22 01:37:37;;;;;;;21.53;18.63;;;;;;;2.69;88.21;91183.50;5058201;28;20312;-72
2023/12/22 01:40:03;;;;;;;25.97;19.43;;;;;;;2.41;91.01;91193.69;5056347;28;20283;-72
2023/12/22 01:42:29;;;;;;;23.67;18.77;;;;;;;2.23;92.27;91176.25;5050488;28;20245;-72
2023/12/22 01:44:54;;;;;;;21.03;18.73;;;;;;;2.57;89.31;91182.31;5049782;28;20213;-73
2023/12/22 01:47:20;;;;;;;21.33;19.07;;;;;;;2.22;91.05;91143.84;5060640;28;20233;-72
2023/12/22 01:49:46;;;;;;;22.90;20.27;;;;;;;1.98;92.36;91150.63;5070180;28;20194;-72
2023/12/22 01:52:11;;;;;;;27.70;19.07;;;;;;;2.36;91.70;91155.88;5058633;28;20233;-73
2023/12/22 01:54:37;;;;;;;20.97;18.50;;;;;;;2.39;92.52;91152.78;5071414;28;20182;-71
2023/12/22 01:57:03;;;;;;;21.13;18.73;;;;;;;2.37;90.96;91159.97;5080785;28;20225;-74
2023/12/22 01:59:30;;;;;;;21.53;19.10;;;;;;;2.66;90.39;91160.09;5068300;28;20217;-72
2023/12/22 02:01:56;;;;;;;22.90;20.50;;;;;;;2.41;90.32;91106.91;5058381;28;20224;-73
2023/12/22 02:04:23;;;;;;;23.23;18.90;;;;;;;2.49;90.79;91136.50;5066077;28;20218;-73
2023/12/22 02:06:48;;;;;;;21.13;19.00;;;;;;;2.17;91.53;91165.22;5074263;28;20259;-73
2023/12/22 02:09:14;;;;;;;25.13;16.07;;;;;;;2.47;88.82;91105.09;5078102;28;20182;-73
2023/12/22 02:11:39;;;;;;;18.17;15.77;;;;;;;2.57;90.40;91131.56;5064327;28;20300;-73
2023/12/22 02:14:06;;;;;;;19.57;17.57;;;;;;;2.48;90.69;91147.81;5060259;28;20185;-73
2023/12/22 02:16:46;;;;;;;20.27;16.57;;;;;;;2.85;88.65;91142.97;5076168;28;20823;-73
2023/12/22 02:19:53;;;;;;;22.57;18.43;;;;;;;2.70;89.44;91156.72;5058552;28;20242;-73
2023/12/22 02:22:18;;;;;;;18.50;16.87;;;;;;;2.58;90.84;91143.41;5061676;28;20316;-73
2023/12/22 02:24:43;;;;;;;20.33;16.70;;;;;;;2.72;88.40;91159.03;5067736;28;20206;-73
2023/12/22 02:27:27;;;;;;;18.63;16.70;;;;;;;2.85;90.21;91153.28;5066298;28;20233;-73
2023/12/22 02:30:01;;;;;;;20.17;17.37;;;;;;;2.40;90.56;91125.19;5071101;28;20173;-73
2023/12/22 02:32:36;;;;;;;19.80;17.83;;;;;;;2.66;91.53;91142.06;5069797;28;20297;-73
2023/12/22 02:35:07;;;;;;;17.47;15.80;;;;;;;2.64;91.34;91126.09;5070081;28;20196;-72
2023/12/22 02:37:35;;;;;;;19.60;16.47;;;;;;;2.75;89.77;91117.28;5051215;28;20222;-73
2023/12/22 02:40:02;;;;;;;23.50;16.13;;;;;;;3.17;88.29;91151.00;5061099;28;20174;-72
2023/12/22 02:42:30;;;;;;;19.77;17.80;;;;;;;3.24;86.74;91141.16;5063410;28;20263;-73
2023/12/22 02:44:59;;;;;;;21.57;17.60;;;;;;;3.18;86.85;91145.59;5061353;28;20235;-74
2023/12/22 02:47:24;;;;;;;25.23;18.10;;;;;;;3.02;86.67;91144.16;5061386;28;20222;-73
2023/12/22 02:49:50;;;;;;;20.07;18.13;;;;;;;2.97;88.46;91130.53;5050776;28;20225;-74
2023/12/22 02:52:15;;;;;;;18.60;17.00;;;;;;;2.98;88.39;91138.00;5057754;28;20259;-72
2023/12/22 02:54:41;;;;;;;17.60;15.70;;;;;;;2.81;90.23;91140.19;5067658;28;20200;-70
2023/12/22 02:57:09;;;;;;;18.83;16.83;;;;;;;2.89;89.03;91118.22;5070304;28;20255;-72
2023/12/22 02:59:34;;;;;;;19.03;17.23;;;;;;;3.07;88.28;91115.75;5066074;28;20174;-72
2023/12/22 03:02:00;;;;;;;22.03;17.77;;;;;;;3.05;88.77;91117.09;5061586;28;20217;-73
2023/12/22 03:04:25;;;;;;;19.43;17.53;;;;;;;2.69;90.09;91083.03;5049746;28;20265;-73
2023/12/22 03:06:51;;;;;;;18.37;15.60;;;;;;;3.01;89.74;91105.75;5045812;28;20293;-70
2023/12/22 03:09:16;;;;;;;19.83;17.90;;;;;;;3.18;88.53;91088.09;5044054;28;20263;-72
2023/12/22 03:11:42;;;;;;;18.87;16.87;;;;;;;3.11;87.89;91092.81;5049092;28;20238;-72
2023/12/22 03:14:07;;;;;;;18.13;16.23;;;;;;;2.94;88.84;91080.28;5039534;28;20201;-73
2023/12/22 03:16:33;;;;;;;20.57;18.23;;;;;;;2.54;90.54;91090.88;5052223;28;20197;-72
2023/12/22 03:18:58;;;;;;;19.27;17.20;;;;;;;2.60;88.83;91045.28;5064878;28;20178;-72
2023/12/22 03:21:23;;;;;;;19.37;16.70;;;;;;;2.84;89.67;91120.81;5068913;28;20210;-72
2023/12/22 03:23:49;;;;;;;20.47;18.07;;;;;;;2.77;90.51;91125.53;5044694;28;20182;-72
2023/12/22 03:26:14;;;;;;;20.87;18.93;;;;;;;2.77;91.64;91099.75;5050430;28;20202;-72
2023/12/22 03:28:39;;;;;;;18.80;16.80;;;;;;;3.04;91.10;91131.00;5038461;28;20222;-72
2023/12/22 03:31:06;;;;;;;19.67;17.70;;;;;;;3.14;91.20;91123.19;5050166;28;20241;-72
2023/12/22 03:33:32;;;;;;;20.27;17.97;;;;;;;3.33;89.30;91124.06;5049961;28;20245;-72
2023/12/22 03:35:57;;;;;;;21.00;18.80;;;;;;;3.14;90.63;91152.31;5045334;28;20201;-74
2023/12/22 03:38:22;;;;;;;23.67;17.73;;;;;;;3.10;89.93;91107.50;5043786;28;20232;-72
2023/12/22 03:40:48;;;;;;;19.77;17.67;;;;;;;3.32;89.38;91122.50;5048499;28;20170;-72
2023/12/22 03:43:13;;;;;;;20.27;18.23;;;;;;;2.92;91.28;91128.00;5045318;28;20226;-72
2023/12/22 03:45:38;;;;;;;22.10;18.07;;;;;;;3.27;90.14;91112.25;5049030;28;20209;-70
2023/12/22 03:48:04;;;;;;;23.47;17.83;;;;;;;2.91;91.50;91090.38;5048818;28;20256;-72
2023/12/22 03:50:30;;;;;;;21.03;17.23;;;;;;;3.30;89.88;91091.84;5043227;28;20213;-71
2023/12/22 03:52:56;;;;;;;22.93;18.70;;;;;;;3.18;89.23;91116.44;5055766;28;20220;-72
2023/12/22 03:55:21;;;;;;;22.73;17.57;;;;;;;2.99;91.48;91129.22;5085627;28;20193;-72
2023/12/22 03:57:46;;;;;;;19.03;16.33;;;;;;;3.19;89.79;91107.69;5062124;28;20236;-72
2023/12/22 04:00:13;;;;;;;23.83;17.13;;;;;;;3.19;90.38;91128.31;5067798;28;20201;-72
2023/12/22 04:02:39;;;;;;;23.63;19.63;;;;;;;3.22;88.41;91110.47;5062618;28;20788;-72
2023/12/22 04:05:05;;;;;;;25.07;18.90;;;;;;;3.26;90.11;91121.03;5057454;28;20235;-72
2023/12/22 04:07:30;;;;;;;20.63;18.40;;;;;;;3.28;89.43;91124.13;5058801;28;20276;-72
2023/12/22 04:09:56;;;;;;;24.13;19.23;;;;;;;3.31;90.28;91124.31;5047319;28;20189;-71
2023/12/22 04:12:21;;;;;;;23.57;19.53;;;;;;;2.92;91.09;91125.41;5052797;28;20245;-72
2023/12/22 04:14:46;;;;;;;24.50;18.50;;;;;;;3.07;90.35;91076.31;5068923;28;20185;-73
2023/12/22 04:17:12;;;;;;;20.77;18.60;;;;;;;3.16;91.13;91115.94;5069237;28;20232;-73
2023/12/22 04:19:37;;;;;;;21.53;19.23;;;;;;;3.30;90.81;91119.44;5060542;28;20715;-72
2023/12/22 04:22:02;;;;;;;21.83;18.27;;;;;;;3.28;90.98;91095.75;5067057;28;20221;-72
2023/12/22 04:24:28;;;;;;;24.30;19.33;;;;;;;3.46;91.34;91118.25;5060718;28;20205;-71
2023/12/22 04:26:53;;;;;;;23.43;19.10;;;;;;;3.49;90.65;91102.25;5054407;28;20229;-72
2023/12/22 04:29:18;;;;;;;20.30;17.87;;;;;;;3.51;90.36;91109.72;5069117;28;20192;-72
2023/12/22 04:31:44;;;;;;;19.27;17.33;;;;;;;3.53;90.39;91098.09;5061179;28;20229;-71
2023/12/22 04:34:12;;;;;;;20.87;18.63;;;;;;;3.49;90.75;91088.59;5063676;28;20209;-72
2023/12/22 04:36:37;;;;;;;22.50;19.13;;;;;;;3.16;92.09;91113.34;5062778;28;20729;-72
2023/12/22 04:39:02;;;;;;;22.03;16.80;;;;;;;3.27;92.08;91083.88;5044031;28;20206;-74
2023/12/22 04:41:28;;;;;;;22.47;17.77;;;;;;;3.25;94.41;91096.28;5040821;28;20183;-72
2023/12/22 04:43:53;;;;;;;18.23;16.37;;;;;;;3.19;93.85;91056.88;5047072;28;20190;-72
2023/12/22 04:46:18;;;;;;;22.03;18.60;;;;;;;3.05;95.09;91078.41;5045736;28;20178;-78
2023/12/22 04:48:44;;;;;;;21.13;18.03;;;;;;;3.31;94.80;91090.03;5067481;28;20193;-74
2023/12/22 04:51:09;;;;;;;20.00;18.00;;;;;;;2.95;97.37;91092.16;5066213;28;20258;-74
2023/12/22 04:53:34;;;;;;;22.07;18.90;;;;;;;3.07;96.06;91068.59;5067389;28;20229;-74
2023/12/22 04:56:00;;;;;;;21.77;19.53;;;;;;;3.15;96.99;91065.44;5064872;28;20197;-74
2023/12/22 04:58:25;;;;;;;22.77;19.37;;;;;;;2.95;98.09;91078.50;5063881;28;20221;-75
2023/12/22 05:00:50;;;;;;;21.13;18.93;;;;;;;3.06;98.28;91087.69;5063309;28;20185;-74
2023/12/22 05:03:16;;;;;;;23.17;20.80;;;;;;;3.22;96.15;91076.22;5066008;28;20225;-77
2023/12/22 05:05:41;;;;;;;22.83;19.77;;;;;;;3.24;96.79;91084.41;5062805;28;20243;-77
2023/12/22 05:08:06;;;;;;;22.03;19.73;;;;;;;2.85;97.87;91084.47;5067080;28;20228;-81
2023/12/22 05:10:32;;;;;;;19.53;17.47;;;;;;;2.94;97.51;91076.97;5066536;28;20185;-74
2023/12/22 05:12:57;;;;;;;21.13;18.23;;;;;;;2.76;99.55;91068.06;5072779;28;21026;-75
2023/12/22 05:15:22;;;;;;;25.20;19.97;;;;;;;2.82;98.12;91040.44;5071136;28;20224;-77
2023/12/22 05:17:48;;;;;;;23.23;19.83;;;;;;;2.50;100.00;91068.50;5062760;28;20255;-75
2023/12/22 05:20:14;;;;;;;21.37;19.17;;;;;;;2.92;99.51;91066.16;5064242;28;20277;-75
2023/12/22 05:22:39;;;;;;;22.17;19.00;;;;;;;3.11;98.15;91051.56;5067728;28;20241;-76
2023/12/22 05:25:05;;;;;;;24.03;18.40;;;;;;;2.81;99.06;91062.09;5068746;28;20208;-75
2023/12/22 05:27:31;;;;;;;24.33;20.73;;;;;;;3.27;96.20;91083.88;5068021;28;20258;-75
2023/12/22 05:30:01;;;;;;;24.47;19.43;;;;;;;2.89;97.45;91061.53;5070769;28;20173;-75
2023/12/22 05:32:27;;;;;;;22.03;19.07;;;;;;;3.38;100.00;91082.75;5070804;28;20221;-74
2023/12/22 05:34:52;;;;;;;26.03;19.93;;;;;;;3.33;99.38;91075.81;5058320;28;20201;-75
2023/12/22 05:37:17;;;;;;;26.63;18.70;;;;;;;3.37;97.55;91108.81;5051979;28;20277;-75
2023/12/22 05:39:44;;;;;;;23.17;20.67;;;;;;;3.23;97.16;91104.31;5048435;28;20186;-75
2023/12/22 05:42:09;;;;;;;22.60;20.27;;;;;;;3.20;97.21;91098.91;5047666;28;20222;-75
2023/12/22 05:44:35;;;;;;;27.80;20.13;;;;;;;3.24;96.93;91094.72;5051713;28;20269;-75
2023/12/22 05:47:00;;;;;;;22.47;19.57;;;;;;;3.17;97.06;91084.75;5055176;28;20221;-75
2023/12/22 05:49:25;;;;;;;21.90;19.50;;;;;;;3.29;96.80;91097.28;5067482;28;20942;-75
2023/12/22 05:51:51;;;;;;;24.20;19.27;;;;;;;3.33;96.72;91093.13;5068684;28;20248;-75
2023/12/22 05:54:19;;;;;;;22.17;19.77;;;;;;;3.33;97.33;91051.88;5085482;28;20204;-75
2023/12/22 05:56:44;;;;;;;24.50;19.93;;;;;;;2.82;98.53;91027.56;5068387;28;20270;-78
2023/12/22 05:59:10;;;;;;;21.83;19.60;;;;;;;3.33;97.18;91049.28;5070608;28;20190;-74
2023/12/22 06:01:36;;;;;;;22.23;19.87;;;;;;;3.01;97.67;91002.66;5069932;28;20219;-76
2023/12/22 06:04:02;;;;;;;22.70;20.30;;;;;;;3.42;97.76;91052.81;5050547;28;20232;-75
2023/12/22 06:06:27;;;;;;;21.60;19.50;;;;;;;3.44;95.67;91042.22;5051166;28;20190;-75
2023/12/22 06:08:53;;;;;;;24.50;21.07;;;;;;;2.79;99.41;91067.53;5038980;28;20175;-75
2023/12/22 06:11:18;;;;;;;23.60;20.27;;;;;;;2.90;99.85;91084.44;5035173;28;20187;-75
2023/12/22 06:13:43;;;;;;;22.63;18.87;;;;;;;3.20;98.17;91080.84;5066592;28;20198;-76
2023/12/22 06:16:14;;;;;;;23.47;18.40;;;;;;;3.17;98.65;91089.91;5068838;28;20193;-75
2023/12/22 06:18:39;;;;;;;20.40;18.33;;;;;;;3.23;98.56;91103.53;5038166;28;20215;-76
2023/12/22 06:21:05;;;;;;;21.10;18.77;;;;;;;3.46;96.76;91107.94;5048076;28;20285;-77
2023/12/22 06:23:30;;;;;;;19.50;17.37;;;;;;;3.65;95.69;91097.72;5042817;28;20221;-78
2023/12/22 06:25:56;;;;;;;20.83;18.73;;;;;;;3.44;95.87;91083.47;5047962;28;20253;-78
2023/12/22 06:28:21;;;;;;;24.50;18.83;;;;;;;3.31;97.10;91095.94;5047177;28;20317;-78
2023/12/22 06:30:47;;;;;;;24.77;18.83;;;;;;;3.10;98.27;91092.03;5043293;28;20186;-76
2023/12/22 06:33:12;;;;;;;22.77;19.53;;;;;;;3.40;96.53;91087.63;5044273;28;20253;-74
2023/12/22 06:35:40;;;;;;;21.20;17.97;;;;;;;3.69;94.75;91076.25;5048440;28;20206;-75
2023/12/22 06:38:06;;;;;;;19.40;17.47;;;;;;;3.55;95.67;91090.84;5045454;28;20258;-75
2023/12/22 06:40:32;;;;;;;24.73;20.83;;;;;;;3.41;95.39;91100.25;5047061;28;20182;-75
2023/12/22 06:42:57;;;;;;;23.67;20.07;;;;;;;3.65;94.16;91106.22;5041510;28;20226;-75
2023/12/22 06:45:23;;;;;;;32.57;21.80;;;;;;;3.70;93.63;91103.59;5049043;28;20224;-74
2023/12/22 06:47:48;;;;;;;30.67;22.27;;;;;;;3.74;93.77;91104.59;5048489;28;20242;-75
2023/12/22 06:50:13;;;;;;;36.80;23.23;;;;;;;3.70;94.70;91102.81;5046691;28;21027;-75
2023/12/22 06:52:39;;;;;;;24.73;20.63;;;;;;;3.65;95.46;91101.06;5045080;28;20248;-75
2023/12/22 06:55:05;;;;;;;24.10;18.70;;;;;;;3.26;95.99;91030.78;5059388;28;20174;-75
2023/12/22 06:57:30;;;;;;;22.33;19.93;;;;;;;3.57;96.24;91114.56;5048783;28;20248;-75
2023/12/22 06:59:56;;;;;;;23.07;19.80;;;;;;;2.91;97.96;91051.72;5049946;28;20895;-75
2023/12/22 07:02:21;;;;;;;27.07;19.47;;;;;;;3.61;96.78;91092.31;5049736;28;20222;-75
2023/12/22 07:05:11;;;;;;;23.10;18.37;;;;;;;3.87;96.19;91106.53;5048766;28;20221;-76
2023/12/22 07:07:36;;;;;;;21.33;18.93;;;;;;;3.53;96.01;91090.34;5039698;28;20253;-78
2023/12/22 07:10:02;;;;;;;21.20;18.93;;;;;;;3.52;96.52;91101.69;5044165;28;20252;-77
2023/12/22 07:12:27;;;;;;;22.03;19.67;;;;;;;3.43;96.49;91058.72;5046357;28;21189;-76
2023/12/22 07:14:53;;;;;;;21.13;18.93;;;;;;;3.77;96.97;91113.56;5045960;28;20260;-74
2023/12/22 07:17:19;;;;;;;23.80;20.87;;;;;;;3.86;95.81;91097.22;5037201;28;20246;-75
2023/12/22 07:19:44;;;;;;;22.33;20.07;;;;;;;3.76;97.55;91128.31;5037517;28;20226;-75
2023/12/22 07:22:10;;;;;;;20.80;18.03;;;;;;;3.73;97.94;91121.13;5047349;28;20233;-75
2023/12/22 07:24:35;;;;;;;20.97;18.90;;;;;;;3.73;98.04;91108.22;5068799;28;20212;-75
2023/12/22 07:27:00;;;;;;;22.87;20.67;;;;;;;3.95;98.03;91131.72;5051376;28;20214;-76
2023/12/22 07:29:26;;;;;;;19.93;17.90;;;;;;;4.18;96.12;91112.09;5048521;28;20190;-76
2023/12/22 07:31:51;;;;;;;21.47;18.50;;;;;;;4.23;95.48;91107.66;5043423;28;20238;-76
2023/12/22 07:34:18;;;;;;;25.23;20.77;;;;;;;4.19;95.72;91127.31;5046066;28;20240;-77
2023/12/22 07:36:43;;;;;;;21.87;19.50;;;;;;;3.90;97.83;91100.81;5039929;28;20230;-81
2023/12/22 07:39:09;;;;;;;22.10;19.90;;;;;;;3.96;98.23;91128.09;5049482;28;20271;-77
2023/12/22 07:41:35;;;;;;;19.87;17.53;;;;;;;4.18;98.07;91125.00;5045093;28;20175;-76
2023/12/22 07:44:01;;;;;;;23.83;18.93;;;;;;;4.24;96.54;91123.91;5056420;28;20201;-77
2023/12/22 07:46:28;;;;;;;21.70;19.43;;;;;;;4.17;97.38;91131.22;5057797;28;20243;-77
2023/12/22 07:48:53;;;;;;;22.33;18.50;;;;;;;4.49;96.74;91126.19;5068765;28;20189;-76
2023/12/22 07:51:18;;;;;;;22.67;20.10;;;;;;;4.44;96.45;91128.81;5069176;28;20197;-74
2023/12/22 07:53:44;;;;;;;27.23;20.53;;;;;;;4.21;96.88;91140.72;5068679;28;20220;-75
2023/12/22 07:56:10;;;;;;;25.73;20.67;;;;;;;4.18;98.54;91151.63;5069191;28;20185;-74
2023/12/22 07:58:36;;;;;;;21.90;19.00;;;;;;;4.51;97.03;91149.94;5047049;28;20226;-76
2023/12/22 08:01:02;;;;;;;25.27;20.73;;;;;;;4.82;95.08;91162.16;5060595;28;20208;-76
2023/12/22 08:03:28;;;;;;;22.03;19.77;;;;;;;4.87;94.17;91154.34;5049206;28;20222;-80
2023/12/22 08:05:53;;;;;;;22.43;18.53;;;;;;;4.53;96.65;91166.69;5045938;28;20282;-77
2023/12/22 08:08:18;;;;;;;20.37;18.17;;;;;;;4.80;95.71;91169.47;5036197;28;20232;-79
2023/12/22 08:10:44;;;;;;;22.97;20.57;;;;;;;4.93;94.53;91173.16;5045666;28;20250;-80
2023/12/22 08:13:09;;;;;;;20.20;18.13;;;;;;;4.75;95.04;91163.56;5044492;28;20226;-79
2023/12/22 08:15:34;;;;;;;20.40;18.40;;;;;;;4.89;94.77;91151.50;5047457;28;20190;-74
2023/12/22 08:18:00;;;;;;;21.30;19.03;;;;;;;4.52;96.63;91198.75;5048378;28;20237;-74
2023/12/22 08:20:25;;;;;;;21.17;18.93;;;;;;;4.62;97.10;91179.78;5040272;28;20237;-74
2023/12/22 08:22:51;;;;;;;32.73;19.63;;;;;;;4.63;96.16;91155.47;5040867;28;20226;-74
2023/12/22 08:25:22;;;;;;;21.63;19.47;;;;;;;4.15;99.65;91190.91;5042298;28;20205;-74
2023/12/22 08:27:47;;;;;;;21.77;19.43;;;;;;;4.48;97.73;91197.00;5054877;28;20224;-73
2023/12/22 08:30:14;;;;;;;21.60;18.07;;;;;;;4.36;97.55;91184.47;5063641;28;20181;-75
2023/12/22 08:32:39;;;;;;;22.57;19.00;;;;;;;4.44;96.77;91155.44;5067384;28;20233;-75
2023/12/22 08:35:05;;;;;;;21.10;19.13;;;;;;;4.67;97.62;91185.63;5063534;28;20181;-73
2023/12/22 08:37:31;;;;;;;21.70;19.40;;;;;;;4.52;97.45;91179.88;5067504;28;20252;-74
2023/12/22 08:39:57;;;;;;;25.70;21.37;;;;;;;4.39;100.00;91199.41;5068131;28;20178;-75
2023/12/22 08:42:23;;;;;;;29.00;21.60;;;;;;;4.48;99.28;91171.16;5061663;28;20228;-74
2023/12/22 08:44:48;;;;;;;28.30;22.07;;;;;;;4.79;98.79;91180.81;5054613;28;20201;-75
2023/12/22 08:47:14;;;;;;;32.20;21.70;;;;;;;4.95;98.06;91181.41;5060037;28;20218;-74
2023/12/22 08:49:39;;;;;;;25.17;21.87;;;;;;;4.80;98.58;91171.25;5051079;28;20200;-74
2023/12/22 08:52:05;;;;;;;29.00;22.17;;;;;;;4.90;98.28;91184.81;5058774;28;20232;-73
2023/12/22 08:54:30;;;;;;;37.73;23.33;;;;;;;4.76;99.67;91168.47;5072879;28;20208;-73
2023/12/22 08:56:56;;;;;;;29.07;22.03;;;;;;;4.89;99.30;91154.84;5065372;28;20217;-74
2023/12/22 08:59:21;;;;;;;27.87;22.37;;;;;;;5.07;98.11;91168.06;5073148;28;20216;-74
2023/12/22 09:01:47;;;;;;;29.40;22.03;;;;;;;4.53;100.00;91171.84;5072966;28;20229;-74
2023/12/22 09:04:12;;;;;;;28.97;22.87;;;;;;;4.80;100.00;91179.81;5066441;28;20236;-72
2023/12/22 09:06:37;;;;;;;25.17;22.50;;;;;;;5.12;99.39;91192.03;5072581;28;20229;-73
2023/12/22 09:09:07;;;;;;;25.23;22.63;;;;;;;5.27;97.90;91183.28;5072636;28;20173;-72
2023/12/22 09:11:32;;;;;;;27.13;23.00;;;;;;;4.96;98.47;91178.53;5071829;28;20245;-74
2023/12/22 09:13:58;;;;;;;24.67;21.93;;;;;;;5.21;97.15;91179.25;5072550;28;20204;-74
2023/12/22 09:16:25;;;;;;;25.53;21.03;;;;;;;4.69;100.00;91216.38;5072377;28;20193;-75
2023/12/22 09:18:51;;;;;;;23.23;20.43;;;;;;;5.13;98.78;91203.16;5061111;28;20185;-74
2023/12/22 09:21:17;;;;;;;24.07;21.20;;;;;;;4.05;100.00;91193.56;5072657;28;20278;-74
2023/12/22 09:23:46;;;;;;;22.83;20.47;;;;;;;4.85;100.00;91197.84;5065862;28;20209;-74
2023/12/22 09:26:12;;;;;;;25.93;21.30;;;;;;;4.04;100.00;91225.59;5070398;28;20185;-74
2023/12/22 09:28:37;;;;;;;23.13;20.33;;;;;;;4.98;100.00;91217.03;5071269;28;20354;-74
2023/12/22 09:31:05;;;;;;;25.20;21.23;;;;;;;5.41;99.49;91231.47;5072704;28;20185;-72
2023/12/22 09:33:31;;;;;;;32.90;24.10;;;;;;;5.49;98.68;91222.28;5070398;28;20221;-74
2023/12/22 09:35:56;;;;;;;28.33;23.80;;;;;;;5.22;99.67;91216.97;5068110;28;20252;-74
2023/12/22 09:38:23;;;;;;;36.43;23.33;;;;;;;5.28;99.24;91202.91;5067318;28;20289;-74
2023/12/22 09:40:49;;;;;;;29.80;22.23;;;;;;;5.16;99.29;91202.59;5071489;28;20201;-74
2023/12/22 09:43:15;;;;;;;29.87;22.13;;;;;;;5.14;99.43;91189.19;5070219;28;20316;-74
2023/12/22 09:45:41;;;;;;;24.90;22.20;;;;;;;5.71;98.31;91205.13;5062069;28;20273;-73
2023/12/22 09:48:08;;;;;;;25.03;22.33;;;;;;;6.05;96.17;91205.66;5055314;28;20229;-74
2023/12/22 09:50:35;;;;;;;26.37;22.07;;;;;;;5.78;96.54;91186.63;5047830;28;20174;-74
2023/12/22 09:53:02;;;;;;;27.00;22.47;;;;;;;6.02;96.79;91176.94;5048931;28;20225;-73
2023/12/22 09:55:28;;;;;;;26.03;20.03;;;;;;;5.90;95.98;91181.81;5051388;28;20182;-74
2023/12/22 09:57:55;;;;;;;30.23;21.70;;;;;;;6.26;95.86;91185.31;5040761;28;20218;-73
2023/12/22 10:00:22;;;;;;;28.30;22.03;;;;;;;6.36;95.27;91169.59;5043757;28;20209;-74
2023/12/22 10:02:48;;;;;;;32.57;22.30;;;;;;;6.41;95.20;91154.69;5051131;28;20281;-74
2023/12/22 10:05:13;;;;;;;24.73;22.23;;;;;;;6.74;94.67;91177.94;5036928;28;20422;-74
2023/12/22 10:07:41;;;;;;;25.30;21.23;;;;;;;6.37;94.57;91140.78;5045293;28;20230;-74
2023/12/22 10:10:07;;;;;;;31.33;21.73;;;;;;;6.09;96.14;91185.88;5052079;28;20187;-73
2023/12/22 10:12:34;;;;;;;32.07;21.70;;;;;;;6.11;97.01;91167.44;5053603;28;20226;-74
2023/12/22 10:15:00;;;;;;;23.13;20.50;;;;;;;5.82;99.30;91169.53;5078003;28;20184;-74
2023/12/22 10:17:27;;;;;;;23.90;21.40;;;;;;;5.36;100.00;91153.91;5064611;28;20239;-74
2023/12/22 10:19:52;;;;;;;24.20;20.40;;;;;;;5.88;100.00;91170.97;5043917;28;20222;-74
2023/12/22 10:22:18;;;;;;;24.83;21.37;;;;;;;6.08;97.60;91165.44;5043946;28;20768;-74
2023/12/22 10:24:47;;;;;;;25.07;20.90;;;;;;;6.10;98.40;91158.91;5046922;28;20220;-74
2023/12/22 10:27:15;;;;;;;26.80;21.57;;;;;;;6.00;100.00;91146.16;5046724;28;20303;-72
2023/12/22 10:29:41;;;;;;;23.87;21.00;;;;;;;6.28;97.79;91110.66;5051844;28;20194;-73
2023/12/22 10:32:08;;;;;;;35.73;21.77;;;;;;;6.50;96.48;91139.25;5047419;28;20253;-74
2023/12/22 10:34:33;;;;;;;30.90;20.50;;;;;;;6.46;97.10;91133.88;5062442;28;20193;-74
2023/12/22 10:37:00;;;;;;;24.33;21.37;;;;;;;7.19;95.08;91138.81;5067064;28;20209;-75
2023/12/22 10:39:31;;;;;;;24.03;21.53;;;;;;;7.11;94.37;91146.53;5071338;28;20188;-73
2023/12/22 10:42:00;;;;;;;23.67;19.80;;;;;;;7.46;92.83;91148.34;5054761;28;20237;-73
2023/12/22 10:44:27;;;;;;;24.27;19.80;;;;;;;7.54;90.78;91143.22;5064381;28;20289;-74
2023/12/22 10:46:54;;;;;;;28.17;19.93;;;;;;;7.37;90.81;91130.13;5064578;28;20252;-74
2023/12/22 10:49:20;;;;;;;28.97;22.07;;;;;;;7.43;91.54;91136.72;5061859;28;20237;-74
2023/12/22 10:51:45;;;;;;;26.83;21.73;;;;;;;7.27;92.98;91112.16;5055604;28;20217;-74
2023/12/22 10:54:10;;;;;;;26.17;22.03;;;;;;;7.58;92.16;91120.78;5063976;28;20198;-74
2023/12/22 10:56:36;;;;;;;31.73;24.90;;;;;;;7.71;91.60;91113.97;5065170;28;20192;-74
2023/12/22 10:59:03;;;;;;;34.70;25.87;;;;;;;7.81;90.17;91095.56;5065909;28;20178;-74
2023/12/22 11:01:29;;;;;;;34.70;23.33;;;;;;;7.59;90.52;91096.38;5059878;28;20189;-74
2023/12/22 11:03:58;;;;;;;21.33;19.17;;;;;;;7.60;89.98;91102.31;5066131;28;20187;-73
2023/12/22 11:06:26;;;;;;;21.93;19.63;;;;;;;7.32;91.76;91093.88;5066978;28;20242;-75
2023/12/22 11:08:53;;;;;;;28.70;20.87;;;;;;;7.40;92.79;91100.19;5062489;28;20232;-73
2023/12/22 11:11:30;;;;;;;31.40;21.40;;;;;;;7.06;93.29;91095.53;5052014;28;20190;-76
2023/12/22 11:13:59;;;;;;;22.17;19.83;;;;;;;7.49;92.27;91094.00;5063241;28;20208;-73
2023/12/22 11:16:30;;;;;;;23.80;21.00;;;;;;;7.06;93.37;91077.38;5068482;28;20211;-74
2023/12/22 11:18:56;;;;;;;26.67;22.40;;;;;;;7.20;94.04;91085.88;5068082;28;20643;-74